Time;durP1;ratioP1;P1;durP2;ratioP2;P2;SDS_P1;SDS_P2;PMS_P1;PMS_P2;Temp;Humidity;BMP_temperature;BMP_pressure;BME280_temperature;BME280_humidity;BME280_pressure;Samples;Min_cycle;Max_cycle;Signal;HPM_P1;HPM_P2
2023/08/27 00:02:01;;;;;;;6.13;3.25;;;;;;;23.44;100.00;97803.69;5018337;28;20059;-65
2023/08/27 00:04:28;;;;;;;5.55;2.50;;;;;;;23.38;100.00;97772.81;5011651;28;20025;-62
2023/08/27 00:06:54;;;;;;;5.18;2.70;;;;;;;23.50;100.00;97740.88;5012281;28;20430;-63
2023/08/27 00:09:19;;;;;;;4.85;2.05;;;;;;;23.50;100.00;97772.69;5026248;28;20028;-64
2023/08/27 00:11:47;;;;;;;5.30;2.45;;;;;;;23.52;100.00;97749.38;5026533;28;20071;-65
2023/08/27 00:14:12;;;;;;;5.80;2.35;;;;;;;23.48;100.00;97722.53;5037412;28;20028;-66
2023/08/27 00:16:39;;;;;;;4.57;2.45;;;;;;;23.60;100.00;97752.38;5037300;28;20044;-65
2023/08/27 00:19:05;;;;;;;10.18;2.80;;;;;;;23.56;100.00;97745.16;5039631;28;20167;-64
2023/08/27 00:21:31;;;;;;;5.72;2.88;;;;;;;23.50;100.00;97744.31;5025769;28;20064;-67
2023/08/27 00:23:57;;;;;;;6.15;2.72;;;;;;;23.61;100.00;97738.06;5032700;28;20095;-65
2023/08/27 00:26:23;;;;;;;6.18;2.97;;;;;;;23.56;100.00;97708.81;5034972;28;21250;-64
2023/08/27 00:28:48;;;;;;;5.57;2.90;;;;;;;23.51;100.00;97700.00;5029737;28;20049;-63
2023/08/27 00:31:14;;;;;;;8.20;2.67;;;;;;;23.40;100.00;97713.19;5025304;28;20039;-63
2023/08/27 00:33:39;;;;;;;5.70;2.65;;;;;;;23.27;100.00;97700.28;5036221;28;20059;-65
2023/08/27 00:36:05;;;;;;;8.30;2.50;;;;;;;23.47;100.00;97726.22;5038393;28;20037;-66
2023/08/27 00:38:30;;;;;;;6.07;2.60;;;;;;;23.58;100.00;97725.31;5037338;28;20035;-66
2023/08/27 00:40:55;;;;;;;5.68;2.70;;;;;;;23.61;100.00;97719.47;5042234;28;20789;-65
2023/08/27 00:43:23;;;;;;;5.10;2.90;;;;;;;23.73;100.00;97721.16;5036894;28;20033;-67
2023/08/27 00:45:48;;;;;;;6.13;2.85;;;;;;;23.69;100.00;97720.88;5038129;28;20104;-66
2023/08/27 00:48:14;;;;;;;5.72;2.97;;;;;;;23.67;100.00;97691.13;5039279;28;20070;-65
2023/08/27 00:50:39;;;;;;;7.43;3.15;;;;;;;23.75;100.00;97724.41;5037585;28;20029;-65
2023/08/27 00:53:07;;;;;;;7.10;3.00;;;;;;;23.63;100.00;97719.25;5040385;28;20138;-69
2023/08/27 00:55:34;;;;;;;7.65;3.50;;;;;;;23.47;100.00;97709.53;5032290;28;20707;-68
2023/08/27 00:58:02;;;;;;;8.20;4.10;;;;;;;23.42;100.00;97718.25;5040983;28;20678;-66
2023/08/27 01:00:28;;;;;;;6.35;3.45;;;;;;;23.45;100.00;97699.16;5045470;28;20029;-65
2023/08/27 01:02:53;;;;;;;6.88;3.75;;;;;;;23.63;100.00;97702.53;5040239;28;21487;-65
2023/08/27 01:05:20;;;;;;;5.65;3.42;;;;;;;23.49;100.00;97683.53;5039692;28;20028;-66
2023/08/27 01:08:06;;;;;;;7.90;3.50;;;;;;;23.64;100.00;97694.31;5036592;28;20032;-66
2023/08/27 01:10:56;;;;;;;6.47;3.50;;;;;;;23.45;100.00;97701.81;5056693;28;20040;-64
2023/08/27 01:13:28;;;;;;;10.23;4.07;;;;;;;23.12;100.00;97679.72;5040160;28;20033;-65
2023/08/27 01:16:00;;;;;;;6.28;3.72;;;;;;;23.26;100.00;97713.84;5038062;28;20064;-66
2023/08/27 01:18:26;;;;;;;8.95;4.00;;;;;;;23.36;100.00;97698.00;5042121;28;20148;-65
2023/08/27 01:20:55;;;;;;;7.45;4.28;;;;;;;23.29;100.00;97694.75;5032200;28;20036;-59
2023/08/27 01:23:24;;;;;;;8.33;4.50;;;;;;;23.17;100.00;97685.09;5040113;28;20055;-67
2023/08/27 01:25:52;;;;;;;8.02;5.30;;;;;;;23.11;100.00;97682.63;5035108;28;20511;-66
2023/08/27 01:28:28;;;;;;;10.00;4.78;;;;;;;23.06;100.00;97667.47;5037891;28;20135;-66
2023/08/27 01:31:03;;;;;;;5.97;3.80;;;;;;;23.08;100.00;97686.59;5037068;28;20029;-65
2023/08/27 01:33:29;;;;;;;6.82;4.10;;;;;;;23.12;100.00;97678.94;5056530;28;20176;-65
2023/08/27 01:35:57;;;;;;;7.55;3.53;;;;;;;23.13;100.00;97675.25;5038097;28;20025;-65
2023/08/27 01:38:25;;;;;;;8.57;3.97;;;;;;;22.96;100.00;97649.59;5021805;28;20040;-65
2023/08/27 01:40:53;;;;;;;8.27;3.72;;;;;;;23.06;100.00;97669.34;5025950;28;20064;-66
2023/08/27 01:43:21;;;;;;;6.03;3.67;;;;;;;22.99;100.00;97672.13;5016612;28;20048;-65
2023/08/27 01:45:48;;;;;;;7.40;4.18;;;;;;;23.18;100.00;97668.16;5038555;28;20884;-64
2023/08/27 01:48:14;;;;;;;6.50;3.95;;;;;;;23.10;100.00;97676.53;5017730;28;20033;-61
2023/08/27 01:50:39;;;;;;;7.05;3.70;;;;;;;22.98;100.00;97657.25;5023600;28;20039;-66
2023/08/27 01:53:05;;;;;;;7.47;3.42;;;;;;;23.10;100.00;97665.13;5040991;28;20047;-67
2023/08/27 01:55:35;;;;;;;7.95;3.95;;;;;;;23.03;100.00;97670.56;5039272;28;20035;-67
2023/08/27 01:58:00;;;;;;;6.82;3.95;;;;;;;23.22;100.00;97676.41;5040579;28;20542;-66
2023/08/27 02:00:25;;;;;;;6.10;3.67;;;;;;;23.23;100.00;97646.16;5034738;28;20884;-66
2023/08/27 02:02:51;;;;;;;6.50;3.97;;;;;;;23.37;100.00;97675.75;5006172;28;21124;-66
2023/08/27 02:05:16;;;;;;;6.97;4.28;;;;;;;23.38;100.00;97664.06;5021923;28;20030;-65
2023/08/27 02:07:42;;;;;;;6.57;4.18;;;;;;;23.46;100.00;97666.28;5036312;28;20135;-66
2023/08/27 02:10:08;;;;;;;7.55;4.32;;;;;;;23.63;100.00;97668.03;5032320;28;20036;-64
2023/08/27 02:12:34;;;;;;;7.05;4.25;;;;;;;23.48;100.00;97655.44;5021965;28;20736;-66
2023/08/27 02:15:08;;;;;;;8.40;4.43;;;;;;;23.53;100.00;97644.84;5036579;28;20027;-67
2023/08/27 02:17:37;;;;;;;6.45;3.97;;;;;;;23.53;100.00;97634.22;5022379;28;20044;-66
2023/08/27 02:20:09;;;;;;;6.50;4.38;;;;;;;23.63;100.00;97618.41;5035303;28;20025;-66
2023/08/27 02:22:34;;;;;;;7.10;3.95;;;;;;;23.47;100.00;97627.28;5037434;28;20040;-65
2023/08/27 02:25:02;;;;;;;7.82;4.78;;;;;;;23.64;100.00;97611.25;5036189;28;20048;-66
2023/08/27 02:27:27;;;;;;;7.22;4.70;;;;;;;23.83;100.00;97617.00;5033166;28;20143;-64
2023/08/27 02:29:55;;;;;;;8.55;5.82;;;;;;;23.86;100.00;97625.25;5040716;28;20025;-64
2023/08/27 02:32:24;;;;;;;9.38;4.75;;;;;;;23.81;100.00;97609.28;5034054;28;20020;-66
2023/08/27 02:34:51;;;;;;;7.50;4.60;;;;;;;23.74;100.00;97596.19;5039166;28;20040;-65
2023/08/27 02:37:17;;;;;;;8.38;5.00;;;;;;;23.76;100.00;97593.28;5029232;28;20040;-65
2023/08/27 02:39:42;;;;;;;6.63;4.57;;;;;;;23.86;100.00;97611.97;5038677;28;20036;-64
2023/08/27 02:42:10;;;;;;;9.80;5.28;;;;;;;24.05;100.00;97632.81;5038577;28;20048;-67
2023/08/27 02:44:37;;;;;;;7.18;4.90;;;;;;;23.89;100.00;97630.03;5055196;28;20111;-66
2023/08/27 02:47:03;;;;;;;6.68;4.28;;;;;;;23.68;100.00;97630.94;5035521;28;20033;-69
2023/08/27 02:49:31;;;;;;;7.82;5.50;;;;;;;23.64;100.00;97630.63;5036468;28;20032;-65
2023/08/27 02:51:56;;;;;;;10.18;5.70;;;;;;;23.77;100.00;97638.16;5033356;28;20040;-65
2023/08/27 02:54:22;;;;;;;9.27;5.63;;;;;;;23.66;100.00;97601.19;5034517;28;20098;-67
2023/08/27 02:56:47;;;;;;;8.85;5.72;;;;;;;23.79;100.00;97596.28;5025761;28;20036;-67
2023/08/27 02:59:15;;;;;;;8.75;5.57;;;;;;;23.97;100.00;97604.88;5039174;28;20036;-67
2023/08/27 03:01:40;;;;;;;8.93;5.68;;;;;;;23.84;100.00;97581.44;5041903;28;20032;-65
2023/08/27 03:04:05;;;;;;;9.93;5.60;;;;;;;23.81;100.00;97593.38;5039762;28;20106;-66
2023/08/27 03:06:33;;;;;;;8.48;5.03;;;;;;;23.81;100.00;97588.06;5040085;28;20784;-65
2023/08/27 03:09:01;;;;;;;9.52;5.05;;;;;;;23.93;100.00;97586.03;5031299;28;20586;-63
2023/08/27 03:11:29;;;;;;;9.20;4.85;;;;;;;23.97;100.00;97591.63;5037802;28;20029;-63
2023/08/27 03:13:54;;;;;;;7.82;5.38;;;;;;;23.85;100.00;97586.47;5042305;28;20068;-65
2023/08/27 03:16:19;;;;;;;8.40;5.97;;;;;;;23.86;100.00;97574.81;5031413;28;20036;-63
2023/08/27 03:18:46;;;;;;;10.05;6.00;;;;;;;23.95;100.00;97583.91;5028162;28;20033;-65
2023/08/27 03:21:14;;;;;;;9.75;5.70;;;;;;;23.94;100.00;97582.28;5032517;28;20036;-66
2023/08/27 03:23:42;;;;;;;8.68;6.07;;;;;;;23.64;100.00;97534.28;5030443;28;20515;-67
2023/08/27 03:26:07;;;;;;;9.45;6.20;;;;;;;23.86;100.00;97561.56;5042030;28;20065;-65
2023/08/27 03:28:35;;;;;;;10.38;6.18;;;;;;;23.90;100.00;97545.91;5042940;28;20033;-64
2023/08/27 03:31:03;;;;;;;8.43;6.28;;;;;;;23.96;100.00;97536.91;5038923;28;20606;-65
2023/08/27 03:33:31;;;;;;;12.55;6.28;;;;;;;24.01;100.00;97536.16;5034477;28;20032;-66
2023/08/27 03:35:59;;;;;;;9.20;5.88;;;;;;;23.86;100.00;97531.53;5038908;28;20029;-60
2023/08/27 03:38:27;;;;;;;9.40;5.88;;;;;;;23.93;100.00;97521.50;5039630;28;20028;-66
2023/08/27 03:40:53;;;;;;;10.02;6.03;;;;;;;24.00;100.00;97506.13;5037257;28;20027;-65
2023/08/27 03:43:20;;;;;;;9.38;6.13;;;;;;;23.81;100.00;97497.03;5056371;28;20040;-67
2023/08/27 03:45:48;;;;;;;10.80;6.07;;;;;;;23.68;100.00;97499.03;5023300;28;20502;-64
2023/08/27 03:48:16;;;;;;;11.02;6.57;;;;;;;23.65;100.00;97480.19;5038031;28;20207;-66
2023/08/27 03:50:41;;;;;;;9.30;6.15;;;;;;;23.86;100.00;97489.06;5040858;28;20759;-62
2023/08/27 03:53:15;;;;;;;9.98;6.40;;;;;;;23.68;100.00;97479.69;5034717;28;20062;-64
2023/08/27 03:55:41;;;;;;;10.50;6.10;;;;;;;23.50;100.00;97488.84;5042998;28;20065;-67
2023/08/27 03:58:07;;;;;;;11.60;6.35;;;;;;;23.42;100.00;97461.75;5032992;28;20032;-65
2023/08/27 04:00:33;;;;;;;10.57;6.45;;;;;;;23.57;100.00;97478.81;5024234;28;20032;-67
2023/08/27 04:02:59;;;;;;;10.35;7.07;;;;;;;23.54;100.00;97476.66;5022670;28;20032;-65
2023/08/27 04:05:25;;;;;;;10.77;6.35;;;;;;;23.69;100.00;97476.75;5039298;28;20124;-63
2023/08/27 04:07:50;;;;;;;9.05;6.93;;;;;;;23.50;100.00;97481.69;5019757;28;20029;-66
2023/08/27 04:10:16;;;;;;;9.10;6.53;;;;;;;23.39;100.00;97486.13;5040319;28;20997;-66
2023/08/27 04:12:41;;;;;;;10.15;6.32;;;;;;;23.27;100.00;97474.09;5038208;28;20033;-64
2023/08/27 04:15:07;;;;;;;10.55;6.10;;;;;;;23.27;100.00;97480.19;5020463;28;20041;-64
2023/08/27 04:17:33;;;;;;;9.32;5.95;;;;;;;23.38;100.00;97489.03;5041812;28;20028;-68
2023/08/27 04:20:03;;;;;;;11.80;6.78;;;;;;;23.31;100.00;97473.34;5020704;28;20040;-61
2023/08/27 04:22:31;;;;;;;10.05;6.13;;;;;;;23.26;100.00;97478.63;5039087;28;20029;-66
2023/08/27 04:24:56;;;;;;;8.48;6.30;;;;;;;23.50;100.00;97488.84;5019911;28;20622;-70
2023/08/27 04:27:21;;;;;;;9.68;6.90;;;;;;;23.47;100.00;97471.56;5038933;28;20023;-66
2023/08/27 04:29:47;;;;;;;10.60;7.03;;;;;;;23.58;100.00;97483.88;5035218;28;20033;-67
2023/08/27 04:32:12;;;;;;;10.48;6.88;;;;;;;23.47;100.00;97449.56;5038960;28;20044;-62
2023/08/27 04:34:40;;;;;;;11.45;7.80;;;;;;;23.30;100.00;97441.78;5036923;28;20032;-60
2023/08/27 04:37:05;;;;;;;11.07;7.25;;;;;;;23.75;100.00;97482.91;5037862;28;20025;-65
2023/08/27 04:39:36;;;;;;;11.80;7.32;;;;;;;23.89;100.00;97484.03;5041858;28;20548;-66
2023/08/27 04:42:03;;;;;;;10.07;7.18;;;;;;;23.82;100.00;97467.59;5034941;28;20033;-64
2023/08/27 04:44:31;;;;;;;12.20;7.80;;;;;;;23.79;100.00;97495.41;5042580;28;20290;-65
2023/08/27 04:46:56;;;;;;;13.13;7.82;;;;;;;23.48;100.00;97488.31;5019493;28;21335;-66
2023/08/27 04:49:22;;;;;;;11.80;7.70;;;;;;;23.73;100.00;97488.47;5024075;28;20037;-64
2023/08/27 04:51:48;;;;;;;11.07;7.30;;;;;;;23.74;100.00;97492.69;5039184;28;21662;-64
2023/08/27 04:54:13;;;;;;;10.43;6.93;;;;;;;23.75;100.00;97489.00;5040766;28;20116;-65
2023/08/27 04:56:41;;;;;;;11.10;7.15;;;;;;;23.44;100.00;97450.06;5039950;28;20232;-64
2023/08/27 04:59:08;;;;;;;10.20;6.80;;;;;;;23.57;100.00;97471.66;5030247;28;20039;-63
2023/08/27 05:01:34;;;;;;;13.98;7.53;;;;;;;23.39;100.00;97488.00;5037936;28;20020;-63
2023/08/27 05:03:59;;;;;;;10.20;7.40;;;;;;;23.42;100.00;97488.28;5037446;28;20025;-61
2023/08/27 05:06:24;;;;;;;12.02;7.60;;;;;;;23.53;100.00;97489.16;5036354;28;20485;-65
2023/08/27 05:08:50;;;;;;;10.35;7.13;;;;;;;23.59;100.00;97480.16;5038709;28;20052;-66
2023/08/27 05:11:15;;;;;;;10.43;7.00;;;;;;;23.71;100.00;97476.50;5019826;28;20116;-64
2023/08/27 05:13:41;;;;;;;12.02;7.22;;;;;;;23.86;100.00;97502.34;5040061;28;20505;-64
2023/08/27 05:16:06;;;;;;;10.98;7.07;;;;;;;23.90;100.00;97503.44;5035511;28;20039;-65
2023/08/27 05:18:32;;;;;;;9.27;7.45;;;;;;;23.94;100.00;97502.66;5039622;28;20037;-65
2023/08/27 05:20:57;;;;;;;10.85;7.05;;;;;;;23.81;100.00;97508.44;5049046;28;20566;-66
2023/08/27 05:23:23;;;;;;;11.25;7.30;;;;;;;23.70;100.00;97486.31;5033272;28;20025;-63
2023/08/27 05:25:48;;;;;;;9.43;7.15;;;;;;;23.79;100.00;97491.94;5031644;28;20037;-65
2023/08/27 05:28:19;;;;;;;11.23;7.20;;;;;;;23.89;100.00;97505.28;5023166;28;20116;-62
2023/08/27 05:30:44;;;;;;;10.48;7.10;;;;;;;23.72;100.00;97465.63;5038887;28;20021;-62
2023/08/27 05:33:10;;;;;;;12.30;7.20;;;;;;;23.89;100.00;97502.63;5037089;28;20033;-65
2023/08/27 05:35:38;;;;;;;10.70;6.70;;;;;;;23.92;100.00;97498.69;5034431;28;20224;-66
2023/08/27 05:38:03;;;;;;;10.25;7.85;;;;;;;23.91;100.00;97499.72;5031206;28;20096;-66
2023/08/27 05:40:29;;;;;;;9.93;6.90;;;;;;;23.85;100.00;97500.75;5035324;28;20041;-67
2023/08/27 05:42:54;;;;;;;9.18;6.70;;;;;;;23.77;100.00;97484.25;5036104;28;20029;-66
2023/08/27 05:45:19;;;;;;;10.20;6.50;;;;;;;23.84;100.00;97489.34;5037514;28;20059;-66
2023/08/27 05:47:50;;;;;;;12.15;7.00;;;;;;;24.05;100.00;97476.16;5037454;28;20017;-62
2023/08/27 05:50:15;;;;;;;10.77;6.55;;;;;;;24.14;100.00;97469.28;5035692;28;20061;-67
2023/08/27 05:52:41;;;;;;;9.00;6.78;;;;;;;24.20;100.00;97465.59;5032895;28;20301;-64
2023/08/27 05:55:07;;;;;;;8.90;6.45;;;;;;;24.24;100.00;97466.69;5036012;28;20047;-65
2023/08/27 05:57:32;;;;;;;11.23;7.03;;;;;;;24.35;100.00;97455.03;5035813;28;20080;-64
2023/08/27 05:59:57;;;;;;;10.15;7.28;;;;;;;24.34;100.00;97476.53;5032910;28;20048;-65
2023/08/27 06:02:24;;;;;;;11.05;6.93;;;;;;;24.43;100.00;97460.88;5033914;28;20484;-64
2023/08/27 06:04:49;;;;;;;10.00;7.28;;;;;;;24.51;100.00;97460.34;5019170;28;20631;-64
2023/08/27 06:07:14;;;;;;;9.65;7.20;;;;;;;24.49;100.00;97444.69;5018365;28;20025;-64
2023/08/27 06:09:42;;;;;;;11.60;6.90;;;;;;;24.65;100.00;97455.38;5036450;28;20032;-66
2023/08/27 06:12:08;;;;;;;10.90;6.85;;;;;;;24.49;97.22;97435.91;5036710;28;20040;-61
2023/08/27 06:14:34;;;;;;;8.52;6.38;;;;;;;24.68;97.64;97465.44;5015374;28;20052;-64
2023/08/27 06:17:04;;;;;;;10.45;6.75;;;;;;;24.47;98.84;97440.69;5032324;28;20498;-63
2023/08/27 06:19:32;;;;;;;10.88;6.45;;;;;;;24.64;98.50;97472.38;5036335;28;20139;-68
2023/08/27 06:21:57;;;;;;;13.27;6.90;;;;;;;24.67;97.34;97475.28;5033084;28;20029;-67
2023/08/27 06:24:25;;;;;;;9.73;6.53;;;;;;;24.81;95.64;97472.94;5034862;28;20109;-66
2023/08/27 06:26:53;;;;;;;9.68;6.35;;;;;;;24.69;95.76;97449.25;5032846;28;20131;-66
2023/08/27 06:29:18;;;;;;;10.20;6.45;;;;;;;24.89;88.91;97463.63;5011502;28;20126;-65
2023/08/27 06:31:46;;;;;;;9.77;6.47;;;;;;;25.08;91.21;97483.31;5026783;28;20033;-65
2023/08/27 06:34:12;;;;;;;10.82;6.32;;;;;;;25.13;93.11;97485.16;5031563;28;20072;-66
2023/08/27 06:36:40;;;;;;;10.35;6.10;;;;;;;25.06;91.11;97474.00;5037384;28;20029;-66
2023/08/27 06:39:10;;;;;;;11.13;6.13;;;;;;;25.13;87.51;97455.91;5033365;28;20095;-65
2023/08/27 06:41:36;;;;;;;8.77;6.18;;;;;;;25.24;85.26;97454.06;5038624;28;20036;-68
2023/08/27 06:44:01;;;;;;;10.45;6.25;;;;;;;25.40;83.05;97452.19;5033273;28;20055;-66
2023/08/27 06:46:27;;;;;;;9.32;5.75;;;;;;;25.49;79.71;97459.34;5031880;28;20045;-66
2023/08/27 06:48:52;;;;;;;10.10;5.68;;;;;;;25.61;79.02;97463.56;5030461;28;20625;-65
2023/08/27 06:51:18;;;;;;;10.13;5.60;;;;;;;25.76;77.09;97460.09;5037753;28;20033;-65
2023/08/27 06:53:48;;;;;;;10.80;4.90;;;;;;;25.78;77.65;97464.06;5029844;28;20031;-63
2023/08/27 06:56:14;;;;;;;8.65;5.55;;;;;;;25.74;76.95;97457.69;5036553;28;20033;-61
2023/08/27 06:58:39;;;;;;;8.93;5.82;;;;;;;25.44;77.27;97438.06;5039647;28;20032;-64
2023/08/27 07:01:04;;;;;;;8.32;5.50;;;;;;;25.80;76.24;97467.25;5037777;28;20047;-66
2023/08/27 07:03:31;;;;;;;8.77;5.60;;;;;;;25.83;75.92;97471.22;5037420;28;20033;-66
2023/08/27 07:05:56;;;;;;;10.52;5.80;;;;;;;25.66;75.43;97439.59;5033857;28;20098;-63
2023/08/27 07:08:22;;;;;;;9.13;5.78;;;;;;;25.73;76.18;97434.00;5010069;28;20037;-63
2023/08/27 07:10:48;;;;;;;9.80;5.43;;;;;;;25.74;77.01;97455.03;5029366;28;20037;-62
2023/08/27 07:13:13;;;;;;;12.00;6.07;;;;;;;25.44;76.57;97421.31;5036256;28;20150;-64
2023/08/27 07:15:39;;;;;;;10.68;5.20;;;;;;;25.86;75.44;97473.34;5031462;28;20037;-66
2023/08/27 07:18:04;;;;;;;9.40;5.30;;;;;;;25.88;75.50;97466.72;5033919;28;20109;-62
2023/08/27 07:20:29;;;;;;;9.30;4.97;;;;;;;26.10;73.67;97481.53;5027219;28;20095;-62
2023/08/27 07:22:57;;;;;;;11.45;5.70;;;;;;;26.11;73.87;97474.38;5036619;28;20404;-63
2023/08/27 07:25:23;;;;;;;12.00;5.22;;;;;;;26.18;72.44;97473.00;5031217;28;20068;-62
2023/08/27 07:27:51;;;;;;;9.10;4.97;;;;;;;26.17;72.80;97474.06;5034945;28;20048;-67
2023/08/27 07:30:19;;;;;;;10.38;4.93;;;;;;;26.17;72.66;97465.28;5033977;28;20056;-64
2023/08/27 07:32:47;;;;;;;9.30;5.90;;;;;;;25.95;73.96;97471.75;5029507;28;20124;-63
2023/08/27 07:35:14;;;;;;;11.35;5.03;;;;;;;26.06;73.13;97475.97;5028738;28;20044;-62
2023/08/27 07:37:40;;;;;;;9.32;5.30;;;;;;;25.94;73.72;97482.66;5014245;28;21248;-66
2023/08/27 07:40:10;;;;;;;9.70;5.80;;;;;;;25.89;74.50;97464.84;5019000;28;20029;-64
2023/08/27 07:42:39;;;;;;;8.93;4.90;;;;;;;25.86;73.81;97442.19;5035773;28;20434;-62
2023/08/27 07:45:04;;;;;;;12.30;4.83;;;;;;;25.90;75.04;97453.09;5036344;28;20450;-67
2023/08/27 07:47:35;;;;;;;11.52;5.25;;;;;;;26.16;75.24;97472.47;5037229;28;20029;-66
2023/08/27 07:50:00;;;;;;;10.45;5.28;;;;;;;26.12;78.19;97484.75;5038285;28;20127;-64
2023/08/27 07:52:28;;;;;;;10.82;5.00;;;;;;;25.96;76.69;97497.31;5018365;28;20025;-63
2023/08/27 07:54:53;;;;;;;11.90;5.80;;;;;;;25.91;78.03;97499.97;5032556;28;20025;-62
2023/08/27 07:57:19;;;;;;;10.35;5.50;;;;;;;25.61;78.59;97479.53;5014722;28;20044;-67
2023/08/27 07:59:48;;;;;;;9.98;6.07;;;;;;;25.77;80.14;97504.25;5034011;28;20034;-65
2023/08/27 08:02:14;;;;;;;10.02;6.30;;;;;;;25.37;82.57;97497.94;5040551;28;20056;-64
2023/08/27 08:04:39;;;;;;;11.15;6.18;;;;;;;24.98;83.91;97483.31;5033706;28;21025;-66
2023/08/27 08:07:04;;;;;;;11.73;6.20;;;;;;;25.29;83.17;97496.63;5036465;28;20024;-65
2023/08/27 08:09:30;;;;;;;12.20;6.07;;;;;;;25.40;83.83;97514.16;5031187;28;20034;-62
2023/08/27 08:11:57;;;;;;;10.18;7.03;;;;;;;25.19;84.48;97523.19;5029867;28;20684;-65
2023/08/27 08:14:25;;;;;;;10.73;6.47;;;;;;;25.06;86.36;97529.84;5035037;28;20045;-65
2023/08/27 08:16:53;;;;;;;9.25;6.22;;;;;;;25.04;83.94;97546.03;5020113;28;20033;-66
2023/08/27 08:19:21;;;;;;;9.73;6.43;;;;;;;25.17;85.11;97520.78;5037440;28;20415;-63
2023/08/27 08:21:47;;;;;;;9.07;6.65;;;;;;;24.99;84.72;97553.22;5032023;28;20188;-69
2023/08/27 08:24:13;;;;;;;10.25;6.70;;;;;;;24.93;88.08;97547.09;5035517;28;20036;-63
2023/08/27 08:26:40;;;;;;;13.13;6.03;;;;;;;24.83;85.03;97539.91;5020697;28;20152;-62
2023/08/27 08:29:11;;;;;;;9.45;6.32;;;;;;;24.85;87.71;97543.09;5035528;28;20080;-66
2023/08/27 08:31:37;;;;;;;11.45;5.93;;;;;;;24.96;86.85;97559.88;5033732;28;20032;-67
2023/08/27 08:34:03;;;;;;;9.50;5.93;;;;;;;24.65;89.41;97533.22;5036194;28;20039;-63
2023/08/27 08:36:31;;;;;;;10.20;6.20;;;;;;;24.93;88.15;97561.22;5032153;28;20051;-64
2023/08/27 08:39:06;;;;;;;9.98;7.28;;;;;;;24.73;90.28;97577.91;5036508;28;20048;-66
2023/08/27 08:41:39;;;;;;;9.98;7.00;;;;;;;24.54;91.98;97580.22;5032358;28;20627;-64
2023/08/27 08:44:15;;;;;;;9.32;7.20;;;;;;;24.69;92.91;97576.03;5035451;28;20029;-66
2023/08/27 08:46:42;;;;;;;10.23;6.82;;;;;;;24.76;93.19;97568.59;5025918;28;20543;-65
2023/08/27 08:49:13;;;;;;;12.82;6.95;;;;;;;24.33;94.61;97558.09;5037584;28;20029;-62
2023/08/27 08:51:41;;;;;;;11.75;6.65;;;;;;;24.29;93.21;97583.53;5035754;28;20029;-64
2023/08/27 08:54:11;;;;;;;13.10;6.63;;;;;;;24.24;94.41;97602.13;5036451;28;20060;-64
2023/08/27 08:56:39;;;;;;;10.32;6.47;;;;;;;24.15;93.46;97567.28;5037170;28;20515;-66
2023/08/27 08:59:05;;;;;;;12.60;7.40;;;;;;;24.00;97.19;97569.84;5030999;28;20041;-70
2023/08/27 09:01:31;;;;;;;10.27;6.93;;;;;;;24.03;96.68;97595.09;5026649;28;20057;-63
2023/08/27 09:03:57;;;;;;;12.55;7.15;;;;;;;23.95;97.34;97607.78;5034732;28;20124;-66
2023/08/27 09:06:23;;;;;;;13.18;7.10;;;;;;;24.05;96.09;97600.94;5018611;28;20039;-65
2023/08/27 09:08:50;;;;;;;13.27;6.30;;;;;;;23.99;93.29;97595.59;5038367;28;20129;-63
2023/08/27 09:11:16;;;;;;;10.48;6.53;;;;;;;24.12;94.92;97620.91;5021243;28;20703;-66
2023/08/27 09:13:42;;;;;;;12.77;6.97;;;;;;;23.98;95.05;97617.91;5031829;28;20224;-68
2023/08/27 09:16:08;;;;;;;10.73;6.57;;;;;;;23.86;95.41;97584.63;5035071;28;20032;-67
2023/08/27 09:18:34;;;;;;;11.63;6.75;;;;;;;23.92;95.08;97623.44;5033986;28;20033;-66
2023/08/27 09:21:00;;;;;;;11.10;7.05;;;;;;;23.86;97.24;97611.16;5035050;28;20028;-67
2023/08/27 09:23:25;;;;;;;13.05;7.00;;;;;;;24.03;95.69;97632.28;5034454;28;20017;-67
2023/08/27 09:25:52;;;;;;;11.63;6.38;;;;;;;23.99;96.02;97650.56;5036497;28;20057;-67
2023/08/27 09:28:21;;;;;;;13.23;7.10;;;;;;;23.78;96.28;97620.38;5033998;28;20025;-64
2023/08/27 09:30:46;;;;;;;12.43;5.88;;;;;;;24.01;95.26;97640.50;5034859;28;20032;-67
2023/08/27 09:33:14;;;;;;;10.82;5.82;;;;;;;24.05;96.21;97654.84;5035703;28;20040;-67
2023/08/27 09:35:43;;;;;;;9.27;6.35;;;;;;;23.86;97.00;97627.91;5043703;28;20035;-66
2023/08/27 09:38:15;;;;;;;12.52;6.70;;;;;;;23.95;96.59;97665.41;5035103;28;20071;-66
2023/08/27 09:40:41;;;;;;;10.95;7.65;;;;;;;23.58;100.00;97656.31;5016457;28;20048;-65
2023/08/27 09:43:11;;;;;;;11.07;6.25;;;;;;;23.84;98.34;97656.56;5036734;28;20028;-66
2023/08/27 09:45:39;;;;;;;9.98;7.18;;;;;;;23.97;99.08;97656.13;5030519;28;20036;-69
2023/08/27 09:48:05;;;;;;;12.50;8.17;;;;;;;23.71;100.00;97652.44;5020160;28;20028;-64
2023/08/27 09:50:31;;;;;;;11.73;7.88;;;;;;;23.69;100.00;97651.88;5030693;28;20036;-66
2023/08/27 09:53:14;;;;;;;11.48;7.85;;;;;;;23.74;100.00;97653.78;5035248;28;20040;-64
2023/08/27 09:55:40;;;;;;;11.35;7.82;;;;;;;23.87;100.00;97645.41;5032749;28;20028;-67
2023/08/27 09:58:06;;;;;;;10.95;8.05;;;;;;;23.83;100.00;97649.66;5015451;28;20087;-67
2023/08/27 10:00:34;;;;;;;13.43;9.02;;;;;;;23.85;100.00;97647.53;5018017;28;20818;-68
2023/08/27 10:03:00;;;;;;;14.30;9.60;;;;;;;23.96;100.00;97653.72;5026214;28;20885;-66
2023/08/27 10:05:28;;;;;;;18.30;9.55;;;;;;;24.01;100.00;97656.41;5038629;28;20286;-66
2023/08/27 10:08:07;;;;;;;12.20;9.43;;;;;;;23.97;100.00;97634.88;5051445;28;20056;-66
2023/08/27 10:10:36;;;;;;;12.57;8.88;;;;;;;23.60;100.00;97648.91;5022396;28;20451;-67
2023/08/27 10:13:03;;;;;;;11.40;8.60;;;;;;;23.63;100.00;97652.09;5031438;28;20772;-67
2023/08/27 10:15:29;;;;;;;12.68;8.70;;;;;;;23.72;100.00;97654.03;5033006;28;20032;-65
2023/08/27 10:17:56;;;;;;;12.88;8.90;;;;;;;23.54;100.00;97641.94;5043681;28;20390;-65
2023/08/27 10:20:22;;;;;;;13.23;9.30;;;;;;;23.58;100.00;97647.53;5022633;28;20040;-64
2023/08/27 10:22:48;;;;;;;11.25;8.82;;;;;;;23.73;100.00;97660.97;5032744;28;20017;-67
2023/08/27 10:25:17;;;;;;;10.95;8.18;;;;;;;23.77;100.00;97664.69;5024678;28;20048;-63
2023/08/27 10:27:45;;;;;;;13.95;9.50;;;;;;;24.05;100.00;97665.47;5033256;28;20065;-67
2023/08/27 10:30:10;;;;;;;11.48;8.60;;;;;;;24.19;100.00;97657.88;5039528;28;20041;-66
2023/08/27 10:32:36;;;;;;;11.07;8.95;;;;;;;24.20;100.00;97654.13;5029442;28;20036;-68
2023/08/27 10:35:05;;;;;;;15.38;8.80;;;;;;;24.21;100.00;97647.78;5025304;28;20898;-67
2023/08/27 10:37:32;;;;;;;12.75;9.00;;;;;;;24.24;100.00;97646.47;5013002;28;20068;-67
2023/08/27 10:40:07;;;;;;;15.43;9.60;;;;;;;24.07;100.00;97630.69;5030195;28;20037;-66
2023/08/27 10:42:33;;;;;;;13.50;8.35;;;;;;;23.96;100.00;97649.19;5031940;28;20025;-64
2023/08/27 10:45:26;;;;;;;12.35;8.75;;;;;;;23.64;100.00;97646.56;5037228;28;20102;-65
2023/08/27 10:48:20;;;;;;;14.45;9.23;;;;;;;23.55;100.00;97640.91;5035555;28;20052;-66
2023/08/27 10:50:50;;;;;;;14.98;8.73;;;;;;;23.64;100.00;97635.13;5041078;28;20033;-65
2023/08/27 10:53:15;;;;;;;;;;;;;;;23.90;100.00;97644.91;5028057;28;20633;-66
2023/08/27 10:55:49;;;;;;;12.77;9.15;;;;;;;23.99;100.00;97645.25;5032556;28;19921;-67
2023/08/27 10:58:21;;;;;;;10.32;8.90;;;;;;;23.96;100.00;97630.63;5032734;28;20024;-65
2023/08/27 11:01:04;;;;;;;12.07;9.85;;;;;;;24.17;100.00;97665.28;5047195;28;20494;-67
2023/08/27 11:04:02;;;;;;;14.45;9.38;;;;;;;24.14;100.00;97658.63;5035770;28;20064;-67
2023/08/27 11:06:32;;;;;;;14.23;9.38;;;;;;;23.86;100.00;97611.97;5050371;28;20186;-68
2023/08/27 11:09:01;;;;;;;12.35;9.23;;;;;;;24.27;100.00;97638.00;5035748;28;20033;-63
2023/08/27 11:11:26;;;;;;;13.70;9.98;;;;;;;24.26;100.00;97647.00;5028430;28;20029;-68
2023/08/27 11:14:22;;;;;;;12.60;10.50;;;;;;;24.46;100.00;97641.00;5035553;28;20021;-68
2023/08/27 11:16:53;;;;;;;11.52;9.20;;;;;;;24.51;100.00;97654.31;5009487;28;20044;-67
2023/08/27 11:19:35;;;;;;;12.07;8.63;;;;;;;24.20;100.00;97642.72;5034390;28;20823;-68
2023/08/27 11:22:09;;;;;;;13.68;8.57;;;;;;;24.24;100.00;97655.25;5033146;28;20048;-70
2023/08/27 11:24:38;;;;;;;13.50;7.07;;;;;;;24.35;98.43;97670.19;5037701;28;20629;-70
2023/08/27 11:27:07;;;;;;;12.07;6.55;;;;;;;24.44;96.90;97681.13;5036089;28;20052;-68